Bovril, Argentina
Current Conditions -  °F | °C
As of 10:00 PM on Tuesday 25 Nov 2014 (Local Time) from SUSO Reporting Station
Clear Clear  
Wind Chill: 20°   Ceiling: Unl
Heat Index: 20°   Visibility: 6mi
Dew Point: 14°   Wind: 8mph
Humidity: 68%   Direction: 170°S
Pressure: 29.83"   Gusts: NA
Location:  31.35°S, 59.43°W
Report Text: SUSO 260100Z 17007KT CAVOK 20/14 Q1010
Loading
Personal Weather Stations






























Interactive Weather Map New forecast layout! Learn more

10-Day Weather Forecast

Advertisements
Track Severe Weather on mobile